sensor_id;sensor_type;location;lat;lon;timestamp;P1;durP1;ratioP1;P2;durP2;ratioP2
15624;SDS011;7912;51.376;6.126;2023-11-21T00:01:35;9.60;;;6.63;;
15624;SDS011;7912;51.376;6.126;2023-11-21T00:04:03;10.33;;;7.97;;
15624;SDS011;7912;51.376;6.126;2023-11-21T00:06:31;9.37;;;7.07;;
15624;SDS011;7912;51.376;6.126;2023-11-21T00:08:58;8.83;;;7.93;;
15624;SDS011;7912;51.376;6.126;2023-11-21T00:11:25;10.73;;;9.40;;
15624;SDS011;7912;51.376;6.126;2023-11-21T00:13:52;9.60;;;8.57;;
15624;SDS011;7912;51.376;6.126;2023-11-21T00:16:20;11.77;;;9.17;;
15624;SDS011;7912;51.376;6.126;2023-11-21T00:18:48;11.23;;;9.73;;
15624;SDS011;7912;51.376;6.126;2023-11-21T00:21:16;12.30;;;9.17;;
15624;SDS011;7912;51.376;6.126;2023-11-21T00:23:43;14.40;;;9.53;;
15624;SDS011;7912;51.376;6.126;2023-11-21T00:26:10;11.97;;;9.70;;
15624;SDS011;7912;51.376;6.126;2023-11-21T00:28:37;14.53;;;9.27;;
15624;SDS011;7912;51.376;6.126;2023-11-21T00:31:04;11.93;;;9.60;;
15624;SDS011;7912;51.376;6.126;2023-11-21T00:33:32;12.50;;;9.87;;
15624;SDS011;7912;51.376;6.126;2023-11-21T00:35:59;13.83;;;10.03;;
15624;SDS011;7912;51.376;6.126;2023-11-21T00:38:27;16.03;;;9.80;;
15624;SDS011;7912;51.376;6.126;2023-11-21T00:40:54;10.97;;;9.30;;
15624;SDS011;7912;51.376;6.126;2023-11-21T00:43:22;13.13;;;9.17;;
15624;SDS011;7912;51.376;6.126;2023-11-21T00:45:52;10.67;;;8.70;;
15624;SDS011;7912;51.376;6.126;2023-11-21T00:48:19;11.13;;;9.10;;
15624;SDS011;7912;51.376;6.126;2023-11-21T00:50:47;13.23;;;9.87;;
15624;SDS011;7912;51.376;6.126;2023-11-21T00:53:14;11.50;;;9.50;;
15624;SDS011;7912;51.376;6.126;2023-11-21T00:55:41;12.60;;;9.73;;
15624;SDS011;7912;51.376;6.126;2023-11-21T00:58:08;14.53;;;10.53;;
15624;SDS011;7912;51.376;6.126;2023-11-21T01:00:36;12.00;;;9.77;;
15624;SDS011;7912;51.376;6.126;2023-11-21T01:03:06;14.73;;;11.37;;
15624;SDS011;7912;51.376;6.126;2023-11-21T01:05:34;14.47;;;9.93;;
15624;SDS011;7912;51.376;6.126;2023-11-21T01:08:02;12.97;;;10.10;;
15624;SDS011;7912;51.376;6.126;2023-11-21T01:10:29;15.23;;;10.30;;
15624;SDS011;7912;51.376;6.126;2023-11-21T01:12:56;13.93;;;10.57;;
15624;SDS011;7912;51.376;6.126;2023-11-21T01:15:24;12.90;;;10.37;;
15624;SDS011;7912;51.376;6.126;2023-11-21T01:17:52;13.87;;;10.40;;
15624;SDS011;7912;51.376;6.126;2023-11-21T01:20:19;14.10;;;10.07;;
15624;SDS011;7912;51.376;6.126;2023-11-21T01:22:47;11.67;;;9.77;;
15624;SDS011;7912;51.376;6.126;2023-11-21T01:25:15;13.73;;;10.53;;
15624;SDS011;7912;51.376;6.126;2023-11-21T01:27:43;12.97;;;10.63;;
15624;SDS011;7912;51.376;6.126;2023-11-21T01:30:10;13.93;;;10.50;;
15624;SDS011;7912;51.376;6.126;2023-11-21T01:32:38;12.00;;;9.83;;
15624;SDS011;7912;51.376;6.126;2023-11-21T01:35:06;12.00;;;9.70;;
15624;SDS011;7912;51.376;6.126;2023-11-21T01:37:36;14.67;;;11.23;;
15624;SDS011;7912;51.376;6.126;2023-11-21T01:40:05;13.77;;;10.70;;
15624;SDS011;7912;51.376;6.126;2023-11-21T01:42:36;12.43;;;10.30;;
15624;SDS011;7912;51.376;6.126;2023-11-21T01:45:03;14.83;;;10.73;;
15624;SDS011;7912;51.376;6.126;2023-11-21T01:47:35;15.40;;;10.60;;
15624;SDS011;7912;51.376;6.126;2023-11-21T01:50:03;15.10;;;11.50;;
15624;SDS011;7912;51.376;6.126;2023-11-21T01:52:37;13.77;;;10.63;;
15624;SDS011;7912;51.376;6.126;2023-11-21T01:55:07;14.70;;;11.33;;
15624;SDS011;7912;51.376;6.126;2023-11-21T01:57:35;14.30;;;11.20;;
15624;SDS011;7912;51.376;6.126;2023-11-21T02:00:04;15.77;;;11.33;;
15624;SDS011;7912;51.376;6.126;2023-11-21T02:02:42;13.63;;;10.87;;
15624;SDS011;7912;51.376;6.126;2023-11-21T02:05:17;16.17;;;10.77;;
15624;SDS011;7912;51.376;6.126;2023-11-21T02:07:46;15.17;;;10.67;;
15624;SDS011;7912;51.376;6.126;2023-11-21T02:10:19;14.90;;;10.50;;
15624;SDS011;7912;51.376;6.126;2023-11-21T02:12:50;15.03;;;10.40;;
15624;SDS011;7912;51.376;6.126;2023-11-21T02:15:18;14.83;;;11.17;;
15624;SDS011;7912;51.376;6.126;2023-11-21T02:17:53;13.93;;;10.87;;
15624;SDS011;7912;51.376;6.126;2023-11-21T02:20:22;16.63;;;10.97;;
15624;SDS011;7912;51.376;6.126;2023-11-21T02:22:55;15.30;;;12.00;;
15624;SDS011;7912;51.376;6.126;2023-11-21T02:25:28;15.33;;;11.23;;
15624;SDS011;7912;51.376;6.126;2023-11-21T02:27:57;14.17;;;10.70;;
15624;SDS011;7912;51.376;6.126;2023-11-21T02:30:28;15.00;;;11.07;;
15624;SDS011;7912;51.376;6.126;2023-11-21T02:33:02;17.07;;;10.93;;
15624;SDS011;7912;51.376;6.126;2023-11-21T02:35:29;16.53;;;12.13;;
15624;SDS011;7912;51.376;6.126;2023-11-21T02:37:58;15.20;;;11.23;;
15624;SDS011;7912;51.376;6.126;2023-11-21T02:40:25;17.43;;;12.47;;
15624;SDS011;7912;51.376;6.126;2023-11-21T02:42:53;17.07;;;12.70;;
15624;SDS011;7912;51.376;6.126;2023-11-21T02:45:21;14.77;;;11.10;;
15624;SDS011;7912;51.376;6.126;2023-11-21T02:47:48;16.00;;;11.40;;
15624;SDS011;7912;51.376;6.126;2023-11-21T02:50:16;18.20;;;12.23;;
15624;SDS011;7912;51.376;6.126;2023-11-21T02:52:45;17.77;;;11.93;;
15624;SDS011;7912;51.376;6.126;2023-11-21T02:55:13;17.97;;;12.47;;
15624;SDS011;7912;51.376;6.126;2023-11-21T02:57:41;18.27;;;13.07;;
15624;SDS011;7912;51.376;6.126;2023-11-21T03:00:08;24.17;;;13.50;;
15624;SDS011;7912;51.376;6.126;2023-11-21T03:02:42;18.80;;;12.20;;
15624;SDS011;7912;51.376;6.126;2023-11-21T03:05:10;19.03;;;12.90;;
15624;SDS011;7912;51.376;6.126;2023-11-21T03:07:40;16.57;;;12.70;;
15624;SDS011;7912;51.376;6.126;2023-11-21T03:10:10;18.37;;;12.23;;
15624;SDS011;7912;51.376;6.126;2023-11-21T03:12:41;20.47;;;13.53;;
15624;SDS011;7912;51.376;6.126;2023-11-21T03:15:08;20.93;;;14.13;;
15624;SDS011;7912;51.376;6.126;2023-11-21T03:17:36;22.77;;;14.23;;
15624;SDS011;7912;51.376;6.126;2023-11-21T03:20:04;22.53;;;14.60;;
15624;SDS011;7912;51.376;6.126;2023-11-21T03:22:32;21.13;;;14.50;;
15624;SDS011;7912;51.376;6.126;2023-11-21T03:25:00;22.37;;;14.07;;
15624;SDS011;7912;51.376;6.126;2023-11-21T03:27:27;20.67;;;13.23;;
15624;SDS011;7912;51.376;6.126;2023-11-21T03:29:55;18.00;;;11.00;;
15624;SDS011;7912;51.376;6.126;2023-11-21T03:32:22;20.47;;;12.40;;
15624;SDS011;7912;51.376;6.126;2023-11-21T03:34:54;20.20;;;12.97;;
15624;SDS011;7912;51.376;6.126;2023-11-21T03:37:26;23.50;;;13.77;;
15624;SDS011;7912;51.376;6.126;2023-11-21T03:39:56;20.97;;;12.87;;
15624;SDS011;7912;51.376;6.126;2023-11-21T03:42:23;21.80;;;14.07;;
15624;SDS011;7912;51.376;6.126;2023-11-21T03:44:53;20.57;;;13.47;;
15624;SDS011;7912;51.376;6.126;2023-11-21T03:47:20;20.63;;;13.73;;
15624;SDS011;7912;51.376;6.126;2023-11-21T03:49:48;24.50;;;15.07;;
15624;SDS011;7912;51.376;6.126;2023-11-21T03:52:18;24.83;;;15.07;;
15624;SDS011;7912;51.376;6.126;2023-11-21T03:54:46;23.97;;;15.40;;
15624;SDS011;7912;51.376;6.126;2023-11-21T03:57:13;22.10;;;13.67;;
15624;SDS011;7912;51.376;6.126;2023-11-21T03:59:40;26.00;;;15.17;;
15624;SDS011;7912;51.376;6.126;2023-11-21T04:02:09;22.73;;;14.87;;
15624;SDS011;7912;51.376;6.126;2023-11-21T04:04:36;21.77;;;13.57;;
15624;SDS011;7912;51.376;6.126;2023-11-21T04:07:04;24.33;;;14.97;;
15624;SDS011;7912;51.376;6.126;2023-11-21T04:09:31;25.07;;;14.03;;
15624;SDS011;7912;51.376;6.126;2023-11-21T04:11:59;24.77;;;14.40;;
15624;SDS011;7912;51.376;6.126;2023-11-21T04:14:26;27.37;;;15.17;;
15624;SDS011;7912;51.376;6.126;2023-11-21T04:16:54;25.13;;;14.43;;
15624;SDS011;7912;51.376;6.126;2023-11-21T04:19:21;22.10;;;12.40;;
15624;SDS011;7912;51.376;6.126;2023-11-21T04:21:49;19.07;;;12.80;;
15624;SDS011;7912;51.376;6.126;2023-11-21T04:24:16;26.63;;;14.47;;
15624;SDS011;7912;51.376;6.126;2023-11-21T04:26:44;21.00;;;13.30;;
15624;SDS011;7912;51.376;6.126;2023-11-21T04:29:11;18.33;;;12.13;;
15624;SDS011;7912;51.376;6.126;2023-11-21T04:31:38;22.67;;;13.90;;
15624;SDS011;7912;51.376;6.126;2023-11-21T04:34:06;24.00;;;14.43;;
15624;SDS011;7912;51.376;6.126;2023-11-21T04:36:34;24.33;;;13.77;;
15624;SDS011;7912;51.376;6.126;2023-11-21T04:39:01;26.50;;;14.73;;
15624;SDS011;7912;51.376;6.126;2023-11-21T04:41:29;32.67;;;14.63;;
15624;SDS011;7912;51.376;6.126;2023-11-21T04:43:58;21.97;;;13.80;;
15624;SDS011;7912;51.376;6.126;2023-11-21T04:46:27;22.53;;;14.20;;
15624;SDS011;7912;51.376;6.126;2023-11-21T04:48:55;32.73;;;16.73;;
15624;SDS011;7912;51.376;6.126;2023-11-21T04:51:22;27.73;;;15.37;;
15624;SDS011;7912;51.376;6.126;2023-11-21T04:53:50;35.53;;;17.43;;
15624;SDS011;7912;51.376;6.126;2023-11-21T04:56:17;31.80;;;16.10;;
15624;SDS011;7912;51.376;6.126;2023-11-21T04:58:45;26.13;;;16.03;;
15624;SDS011;7912;51.376;6.126;2023-11-21T05:01:12;31.73;;;17.63;;
15624;SDS011;7912;51.376;6.126;2023-11-21T05:03:40;27.83;;;16.73;;
15624;SDS011;7912;51.376;6.126;2023-11-21T05:06:11;28.77;;;16.73;;
15624;SDS011;7912;51.376;6.126;2023-11-21T05:08:38;32.23;;;16.83;;
15624;SDS011;7912;51.376;6.126;2023-11-21T05:11:05;31.97;;;17.33;;
15624;SDS011;7912;51.376;6.126;2023-11-21T05:13:37;27.17;;;16.90;;
15624;SDS011;7912;51.376;6.126;2023-11-21T05:16:05;25.23;;;15.80;;
15624;SDS011;7912;51.376;6.126;2023-11-21T05:18:33;24.60;;;16.80;;
15624;SDS011;7912;51.376;6.126;2023-11-21T05:21:01;28.83;;;17.33;;
15624;SDS011;7912;51.376;6.126;2023-11-21T05:23:29;26.67;;;16.90;;
15624;SDS011;7912;51.376;6.126;2023-11-21T05:25:56;27.47;;;16.37;;
15624;SDS011;7912;51.376;6.126;2023-11-21T05:28:23;22.53;;;15.87;;
15624;SDS011;7912;51.376;6.126;2023-11-21T05:30:51;26.63;;;16.97;;
15624;SDS011;7912;51.376;6.126;2023-11-21T05:33:35;24.77;;;15.67;;
15624;SDS011;7912;51.376;6.126;2023-11-21T05:36:03;24.00;;;16.47;;
15624;SDS011;7912;51.376;6.126;2023-11-21T05:38:31;23.50;;;15.43;;
15624;SDS011;7912;51.376;6.126;2023-11-21T05:40:58;21.63;;;14.20;;
15624;SDS011;7912;51.376;6.126;2023-11-21T05:43:25;24.53;;;15.97;;
15624;SDS011;7912;51.376;6.126;2023-11-21T05:45:53;26.47;;;15.77;;
15624;SDS011;7912;51.376;6.126;2023-11-21T05:48:21;31.63;;;16.50;;
15624;SDS011;7912;51.376;6.126;2023-11-21T05:50:52;28.37;;;17.00;;
15624;SDS011;7912;51.376;6.126;2023-11-21T05:53:19;31.87;;;17.73;;
15624;SDS011;7912;51.376;6.126;2023-11-21T05:55:46;26.50;;;16.27;;
15624;SDS011;7912;51.376;6.126;2023-11-21T05:58:14;28.83;;;17.23;;
15624;SDS011;7912;51.376;6.126;2023-11-21T06:00:41;28.43;;;17.13;;
15624;SDS011;7912;51.376;6.126;2023-11-21T06:03:09;25.97;;;16.90;;
15624;SDS011;7912;51.376;6.126;2023-11-21T06:05:36;25.43;;;17.00;;
15624;SDS011;7912;51.376;6.126;2023-11-21T06:08:04;25.80;;;16.70;;
15624;SDS011;7912;51.376;6.126;2023-11-21T06:10:33;26.40;;;17.30;;
15624;SDS011;7912;51.376;6.126;2023-11-21T06:13:00;22.33;;;15.30;;
15624;SDS011;7912;51.376;6.126;2023-11-21T06:15:29;23.53;;;15.83;;
15624;SDS011;7912;51.376;6.126;2023-11-21T06:17:57;26.13;;;16.50;;
15624;SDS011;7912;51.376;6.126;2023-11-21T06:20:25;22.77;;;14.93;;
15624;SDS011;7912;51.376;6.126;2023-11-21T06:22:52;25.97;;;16.60;;
15624;SDS011;7912;51.376;6.126;2023-11-21T06:25:21;30.17;;;18.60;;
15624;SDS011;7912;51.376;6.126;2023-11-21T06:27:49;28.37;;;18.10;;
15624;SDS011;7912;51.376;6.126;2023-11-21T06:30:18;27.13;;;16.77;;
15624;SDS011;7912;51.376;6.126;2023-11-21T06:32:45;28.50;;;16.40;;
15624;SDS011;7912;51.376;6.126;2023-11-21T06:35:14;28.97;;;17.97;;
15624;SDS011;7912;51.376;6.126;2023-11-21T06:37:43;26.73;;;16.33;;
15624;SDS011;7912;51.376;6.126;2023-11-21T06:40:16;25.20;;;14.90;;
15624;SDS011;7912;51.376;6.126;2023-11-21T06:42:46;26.93;;;16.40;;
15624;SDS011;7912;51.376;6.126;2023-11-21T06:45:15;24.33;;;15.90;;
15624;SDS011;7912;51.376;6.126;2023-11-21T06:47:43;24.17;;;15.33;;
15624;SDS011;7912;51.376;6.126;2023-11-21T06:52:57;20.50;;;13.57;;
15624;SDS011;7912;51.376;6.126;2023-11-21T06:55:25;23.20;;;15.10;;
15624;SDS011;7912;51.376;6.126;2023-11-21T06:57:52;24.70;;;15.27;;
15624;SDS011;7912;51.376;6.126;2023-11-21T07:00:19;29.40;;;17.90;;
15624;SDS011;7912;51.376;6.126;2023-11-21T07:02:47;23.60;;;16.00;;
15624;SDS011;7912;51.376;6.126;2023-11-21T07:05:14;25.90;;;17.07;;
15624;SDS011;7912;51.376;6.126;2023-11-21T07:07:47;26.33;;;16.57;;
15624;SDS011;7912;51.376;6.126;2023-11-21T07:10:16;24.17;;;15.83;;
15624;SDS011;7912;51.376;6.126;2023-11-21T07:12:43;24.87;;;16.50;;
15624;SDS011;7912;51.376;6.126;2023-11-21T07:15:11;23.63;;;16.87;;
15624;SDS011;7912;51.376;6.126;2023-11-21T07:17:38;26.57;;;16.73;;
15624;SDS011;7912;51.376;6.126;2023-11-21T07:20:07;23.73;;;15.13;;
15624;SDS011;7912;51.376;6.126;2023-11-21T07:22:35;24.83;;;17.43;;
15624;SDS011;7912;51.376;6.126;2023-11-21T07:25:02;26.07;;;17.03;;
15624;SDS011;7912;51.376;6.126;2023-11-21T07:27:30;22.33;;;14.80;;
15624;SDS011;7912;51.376;6.126;2023-11-21T07:30:00;24.70;;;16.47;;
15624;SDS011;7912;51.376;6.126;2023-11-21T07:32:30;24.50;;;16.27;;
15624;SDS011;7912;51.376;6.126;2023-11-21T07:34:58;25.77;;;17.00;;
15624;SDS011;7912;51.376;6.126;2023-11-21T07:37:27;23.17;;;14.67;;
15624;SDS011;7912;51.376;6.126;2023-11-21T07:39:57;25.23;;;16.13;;
15624;SDS011;7912;51.376;6.126;2023-11-21T07:42:25;24.00;;;15.33;;
15624;SDS011;7912;51.376;6.126;2023-11-21T07:44:53;24.50;;;14.80;;
15624;SDS011;7912;51.376;6.126;2023-11-21T07:47:21;23.93;;;15.00;;
15624;SDS011;7912;51.376;6.126;2023-11-21T07:49:48;22.77;;;15.53;;
15624;SDS011;7912;51.376;6.126;2023-11-21T07:52:16;21.93;;;14.67;;
15624;SDS011;7912;51.376;6.126;2023-11-21T07:54:43;20.60;;;14.30;;
15624;SDS011;7912;51.376;6.126;2023-11-21T07:57:10;22.33;;;14.57;;
15624;SDS011;7912;51.376;6.126;2023-11-21T07:59:42;21.20;;;14.33;;
15624;SDS011;7912;51.376;6.126;2023-11-21T08:02:09;20.03;;;13.97;;
15624;SDS011;7912;51.376;6.126;2023-11-21T08:04:37;24.17;;;15.10;;
15624;SDS011;7912;51.376;6.126;2023-11-21T08:07:04;21.83;;;14.37;;
15624;SDS011;7912;51.376;6.126;2023-11-21T08:09:31;22.47;;;15.40;;
15624;SDS011;7912;51.376;6.126;2023-11-21T08:12:00;25.20;;;15.70;;
15624;SDS011;7912;51.376;6.126;2023-11-21T08:14:29;25.23;;;15.50;;
15624;SDS011;7912;51.376;6.126;2023-11-21T08:16:56;23.03;;;14.53;;
15624;SDS011;7912;51.376;6.126;2023-11-21T08:19:24;25.17;;;16.33;;
15624;SDS011;7912;51.376;6.126;2023-11-21T08:21:52;24.30;;;16.00;;
15624;SDS011;7912;51.376;6.126;2023-11-21T08:24:21;24.90;;;16.17;;
15624;SDS011;7912;51.376;6.126;2023-11-21T08:26:48;21.23;;;14.97;;
15624;SDS011;7912;51.376;6.126;2023-11-21T08:29:18;25.97;;;15.20;;
15624;SDS011;7912;51.376;6.126;2023-11-21T08:31:46;20.67;;;13.97;;
15624;SDS011;7912;51.376;6.126;2023-11-21T08:34:14;20.33;;;14.13;;
15624;SDS011;7912;51.376;6.126;2023-11-21T08:36:42;21.47;;;14.40;;
15624;SDS011;7912;51.376;6.126;2023-11-21T08:39:10;21.70;;;14.00;;
15624;SDS011;7912;51.376;6.126;2023-11-21T08:41:39;20.70;;;13.97;;
15624;SDS011;7912;51.376;6.126;2023-11-21T08:44:06;19.27;;;13.07;;
15624;SDS011;7912;51.376;6.126;2023-11-21T08:46:33;19.17;;;12.77;;
15624;SDS011;7912;51.376;6.126;2023-11-21T08:49:03;22.63;;;14.70;;
15624;SDS011;7912;51.376;6.126;2023-11-21T08:51:30;22.20;;;14.57;;
15624;SDS011;7912;51.376;6.126;2023-11-21T08:53:58;25.73;;;16.07;;
15624;SDS011;7912;51.376;6.126;2023-11-21T08:56:27;21.30;;;14.30;;
15624;SDS011;7912;51.376;6.126;2023-11-21T08:58:54;22.17;;;14.43;;
15624;SDS011;7912;51.376;6.126;2023-11-21T09:01:22;21.13;;;14.30;;
15624;SDS011;7912;51.376;6.126;2023-11-21T09:03:51;21.87;;;14.13;;
15624;SDS011;7912;51.376;6.126;2023-11-21T09:06:18;20.93;;;13.80;;
15624;SDS011;7912;51.376;6.126;2023-11-21T09:08:46;20.40;;;12.93;;
15624;SDS011;7912;51.376;6.126;2023-11-21T09:11:13;19.03;;;13.17;;
15624;SDS011;7912;51.376;6.126;2023-11-21T09:13:41;20.27;;;13.80;;
15624;SDS011;7912;51.376;6.126;2023-11-21T09:16:08;21.90;;;13.43;;
15624;SDS011;7912;51.376;6.126;2023-11-21T09:18:35;18.30;;;12.77;;
15624;SDS011;7912;51.376;6.126;2023-11-21T09:21:03;22.80;;;14.83;;
15624;SDS011;7912;51.376;6.126;2023-11-21T09:23:31;23.67;;;14.77;;
15624;SDS011;7912;51.376;6.126;2023-11-21T09:25:58;23.27;;;14.90;;
15624;SDS011;7912;51.376;6.126;2023-11-21T09:28:27;23.30;;;14.97;;
15624;SDS011;7912;51.376;6.126;2023-11-21T09:30:54;21.93;;;14.37;;
15624;SDS011;7912;51.376;6.126;2023-11-21T09:33:22;20.03;;;13.83;;
15624;SDS011;7912;51.376;6.126;2023-11-21T09:35:51;22.03;;;13.53;;
15624;SDS011;7912;51.376;6.126;2023-11-21T09:38:19;22.30;;;14.47;;
15624;SDS011;7912;51.376;6.126;2023-11-21T09:40:49;20.57;;;13.97;;
15624;SDS011;7912;51.376;6.126;2023-11-21T09:43:16;17.40;;;11.67;;
15624;SDS011;7912;51.376;6.126;2023-11-21T09:45:46;21.10;;;13.80;;
15624;SDS011;7912;51.376;6.126;2023-11-21T09:48:17;19.57;;;13.63;;
15624;SDS011;7912;51.376;6.126;2023-11-21T09:50:47;20.40;;;12.63;;
15624;SDS011;7912;51.376;6.126;2023-11-21T09:55:49;24.63;;;13.53;;
15624;SDS011;7912;51.376;6.126;2023-11-21T09:58:19;22.87;;;14.87;;
15624;SDS011;7912;51.376;6.126;2023-11-21T10:00:49;21.57;;;13.53;;
15624;SDS011;7912;51.376;6.126;2023-11-21T10:03:20;19.10;;;12.47;;
15624;SDS011;7912;51.376;6.126;2023-11-21T10:05:48;18.73;;;12.47;;
15624;SDS011;7912;51.376;6.126;2023-11-21T10:08:19;20.37;;;12.57;;
15624;SDS011;7912;51.376;6.126;2023-11-21T10:10:51;18.90;;;12.90;;
15624;SDS011;7912;51.376;6.126;2023-11-21T10:13:21;19.33;;;12.63;;
15624;SDS011;7912;51.376;6.126;2023-11-21T10:15:51;17.57;;;11.77;;
15624;SDS011;7912;51.376;6.126;2023-11-21T10:18:19;19.20;;;12.57;;
15624;SDS011;7912;51.376;6.126;2023-11-21T10:20:49;17.77;;;12.00;;
15624;SDS011;7912;51.376;6.126;2023-11-21T10:23:21;17.93;;;11.80;;
15624;SDS011;7912;51.376;6.126;2023-11-21T10:25:50;20.27;;;13.57;;
15624;SDS011;7912;51.376;6.126;2023-11-21T10:28:25;18.27;;;12.40;;
15624;SDS011;7912;51.376;6.126;2023-11-21T10:30:52;19.40;;;11.37;;
15624;SDS011;7912;51.376;6.126;2023-11-21T10:33:26;19.70;;;13.00;;
15624;SDS011;7912;51.376;6.126;2023-11-21T10:35:55;20.80;;;13.23;;
15624;SDS011;7912;51.376;6.126;2023-11-21T10:38:23;19.60;;;12.57;;
15624;SDS011;7912;51.376;6.126;2023-11-21T10:40:52;20.07;;;12.57;;
15624;SDS011;7912;51.376;6.126;2023-11-21T10:43:24;16.87;;;12.20;;
15624;SDS011;7912;51.376;6.126;2023-11-21T10:45:54;17.07;;;11.77;;
15624;SDS011;7912;51.376;6.126;2023-11-21T10:48:28;19.47;;;12.33;;
15624;SDS011;7912;51.376;6.126;2023-11-21T10:50:56;19.13;;;12.23;;
15624;SDS011;7912;51.376;6.126;2023-11-21T10:53:24;17.80;;;11.57;;
15624;SDS011;7912;51.376;6.126;2023-11-21T10:56:00;17.33;;;11.97;;
15624;SDS011;7912;51.376;6.126;2023-11-21T10:58:34;16.80;;;11.13;;
15624;SDS011;7912;51.376;6.126;2023-11-21T11:01:06;14.13;;;9.37;;
15624;SDS011;7912;51.376;6.126;2023-11-21T11:03:34;15.03;;;10.47;;
15624;SDS011;7912;51.376;6.126;2023-11-21T11:06:04;15.23;;;10.10;;
15624;SDS011;7912;51.376;6.126;2023-11-21T11:08:38;15.27;;;10.20;;
15624;SDS011;7912;51.376;6.126;2023-11-21T11:11:07;13.77;;;9.37;;
15624;SDS011;7912;51.376;6.126;2023-11-21T11:13:39;15.70;;;10.00;;
15624;SDS011;7912;51.376;6.126;2023-11-21T11:16:11;14.67;;;9.67;;
15624;SDS011;7912;51.376;6.126;2023-11-21T11:18:44;12.83;;;8.80;;
15624;SDS011;7912;51.376;6.126;2023-11-21T11:21:18;12.63;;;8.93;;
15624;SDS011;7912;51.376;6.126;2023-11-21T11:38:37;12.50;;;8.07;;
15624;SDS011;7912;51.376;6.126;2023-11-21T11:41:06;9.73;;;7.23;;
15624;SDS011;7912;51.376;6.126;2023-11-21T11:43:35;11.10;;;8.20;;
15624;SDS011;7912;51.376;6.126;2023-11-21T11:46:12;9.83;;;7.03;;
15624;SDS011;7912;51.376;6.126;2023-11-21T11:48:42;11.37;;;8.50;;
15624;SDS011;7912;51.376;6.126;2023-11-21T11:51:12;10.57;;;7.43;;
15624;SDS011;7912;51.376;6.126;2023-11-21T11:53:43;11.40;;;8.03;;
15624;SDS011;7912;51.376;6.126;2023-11-21T11:56:23;10.77;;;8.70;;
15624;SDS011;7912;51.376;6.126;2023-11-21T11:58:53;9.33;;;7.17;;
15624;SDS011;7912;51.376;6.126;2023-11-21T12:01:26;11.97;;;9.30;;
15624;SDS011;7912;51.376;6.126;2023-11-21T12:06:53;11.60;;;8.20;;
15624;SDS011;7912;51.376;6.126;2023-11-21T12:09:22;10.20;;;7.77;;
15624;SDS011;7912;51.376;6.126;2023-11-21T12:11:53;10.90;;;8.07;;
15624;SDS011;7912;51.376;6.126;2023-11-21T12:14:22;9.60;;;6.83;;
15624;SDS011;7912;51.376;6.126;2023-11-21T12:16:50;9.00;;;7.50;;
15624;SDS011;7912;51.376;6.126;2023-11-21T12:19:18;7.13;;;6.17;;
15624;SDS011;7912;51.376;6.126;2023-11-21T12:21:47;6.83;;;6.13;;
15624;SDS011;7912;51.376;6.126;2023-11-21T12:24:15;7.13;;;5.73;;
15624;SDS011;7912;51.376;6.126;2023-11-21T12:26:43;6.83;;;5.57;;
15624;SDS011;7912;51.376;6.126;2023-11-21T12:29:10;5.93;;;5.33;;
15624;SDS011;7912;51.376;6.126;2023-11-21T12:31:38;6.70;;;5.90;;
15624;SDS011;7912;51.376;6.126;2023-11-21T12:34:07;6.37;;;5.70;;
15624;SDS011;7912;51.376;6.126;2023-11-21T12:36:37;6.70;;;5.47;;
15624;SDS011;7912;51.376;6.126;2023-11-21T12:39:05;6.00;;;5.40;;
15624;SDS011;7912;51.376;6.126;2023-11-21T12:44:24;7.57;;;5.60;;
15624;SDS011;7912;51.376;6.126;2023-11-21T12:46:51;6.83;;;5.70;;
15624;SDS011;7912;51.376;6.126;2023-11-21T12:49:19;6.57;;;5.83;;
15624;SDS011;7912;51.376;6.126;2023-11-21T12:51:48;8.87;;;6.30;;
15624;SDS011;7912;51.376;6.126;2023-11-21T12:54:16;8.13;;;5.63;;
15624;SDS011;7912;51.376;6.126;2023-11-21T12:56:47;9.17;;;5.93;;
15624;SDS011;7912;51.376;6.126;2023-11-21T12:59:15;7.30;;;5.57;;
15624;SDS011;7912;51.376;6.126;2023-11-21T13:01:44;6.97;;;6.20;;
15624;SDS011;7912;51.376;6.126;2023-11-21T13:04:13;5.73;;;5.13;;
15624;SDS011;7912;51.376;6.126;2023-11-21T13:06:40;7.40;;;5.73;;
15624;SDS011;7912;51.376;6.126;2023-11-21T13:09:08;7.63;;;5.73;;
15624;SDS011;7912;51.376;6.126;2023-11-21T13:11:37;5.87;;;5.30;;
15624;SDS011;7912;51.376;6.126;2023-11-21T13:14:07;6.03;;;5.43;;
15624;SDS011;7912;51.376;6.126;2023-11-21T13:16:37;5.53;;;5.03;;
15624;SDS011;7912;51.376;6.126;2023-11-21T13:19:06;5.33;;;4.83;;
15624;SDS011;7912;51.376;6.126;2023-11-21T13:21:35;5.30;;;4.63;;
15624;SDS011;7912;51.376;6.126;2023-11-21T13:24:02;5.63;;;5.03;;
15624;SDS011;7912;51.376;6.126;2023-11-21T13:26:31;6.07;;;5.30;;
15624;SDS011;7912;51.376;6.126;2023-11-21T13:28:59;6.13;;;5.40;;
15624;SDS011;7912;51.376;6.126;2023-11-21T13:31:27;10.33;;;6.23;;
15624;SDS011;7912;51.376;6.126;2023-11-21T13:33:57;9.37;;;6.57;;
15624;SDS011;7912;51.376;6.126;2023-11-21T13:36:31;8.73;;;6.57;;
15624;SDS011;7912;51.376;6.126;2023-11-21T13:39:02;8.53;;;6.23;;
15624;SDS011;7912;51.376;6.126;2023-11-21T13:41:42;11.73;;;7.47;;
15624;SDS011;7912;51.376;6.126;2023-11-21T13:44:10;10.50;;;7.87;;
15624;SDS011;7912;51.376;6.126;2023-11-21T13:46:53;9.07;;;8.03;;
15624;SDS011;7912;51.376;6.126;2023-11-21T13:49:23;10.10;;;7.30;;
15624;SDS011;7912;51.376;6.126;2023-11-21T13:51:51;7.93;;;6.93;;
15624;SDS011;7912;51.376;6.126;2023-11-21T13:54:21;8.07;;;6.90;;
15624;SDS011;7912;51.376;6.126;2023-11-21T13:56:51;11.10;;;7.17;;
15624;SDS011;7912;51.376;6.126;2023-11-21T13:59:19;12.80;;;7.60;;
15624;SDS011;7912;51.376;6.126;2023-11-21T14:01:52;7.97;;;7.17;;
15624;SDS011;7912;51.376;6.126;2023-11-21T14:04:20;9.33;;;7.60;;
15624;SDS011;7912;51.376;6.126;2023-11-21T14:07:02;8.60;;;7.63;;
15624;SDS011;7912;51.376;6.126;2023-11-21T14:09:47;9.60;;;8.40;;
15624;SDS011;7912;51.376;6.126;2023-11-21T14:12:16;10.53;;;8.87;;
15624;SDS011;7912;51.376;6.126;2023-11-21T14:14:43;11.87;;;9.90;;
15624;SDS011;7912;51.376;6.126;2023-11-21T14:17:11;12.00;;;10.27;;
15624;SDS011;7912;51.376;6.126;2023-11-21T14:19:39;13.67;;;10.30;;
15624;SDS011;7912;51.376;6.126;2023-11-21T14:22:10;14.27;;;11.13;;
15624;SDS011;7912;51.376;6.126;2023-11-21T14:24:38;17.27;;;11.57;;
15624;SDS011;7912;51.376;6.126;2023-11-21T14:27:12;14.67;;;11.00;;
15624;SDS011;7912;51.376;6.126;2023-11-21T14:29:41;14.30;;;10.90;;
15624;SDS011;7912;51.376;6.126;2023-11-21T14:32:11;12.70;;;11.13;;
15624;SDS011;7912;51.376;6.126;2023-11-21T14:34:40;14.33;;;12.60;;
15624;SDS011;7912;51.376;6.126;2023-11-21T14:37:09;14.40;;;12.40;;
15624;SDS011;7912;51.376;6.126;2023-11-21T14:39:40;15.80;;;12.80;;
15624;SDS011;7912;51.376;6.126;2023-11-21T14:42:11;16.40;;;12.60;;
15624;SDS011;7912;51.376;6.126;2023-11-21T14:44:41;14.70;;;11.67;;
15624;SDS011;7912;51.376;6.126;2023-11-21T14:47:09;16.97;;;12.77;;
15624;SDS011;7912;51.376;6.126;2023-11-21T14:49:42;17.57;;;13.07;;
15624;SDS011;7912;51.376;6.126;2023-11-21T14:52:20;13.93;;;11.70;;
15624;SDS011;7912;51.376;6.126;2023-11-21T14:55:02;13.47;;;12.07;;
15624;SDS011;7912;51.376;6.126;2023-11-21T14:58:05;17.27;;;13.17;;
15624;SDS011;7912;51.376;6.126;2023-11-21T15:00:38;14.77;;;12.70;;
15624;SDS011;7912;51.376;6.126;2023-11-21T15:03:12;15.13;;;12.47;;
15624;SDS011;7912;51.376;6.126;2023-11-21T15:06:00;13.70;;;12.20;;
15624;SDS011;7912;51.376;6.126;2023-11-21T15:08:48;15.20;;;12.57;;
15624;SDS011;7912;51.376;6.126;2023-11-21T15:11:43;15.07;;;12.87;;
15624;SDS011;7912;51.376;6.126;2023-11-21T15:14:11;16.03;;;13.37;;
15624;SDS011;7912;51.376;6.126;2023-11-21T15:16:42;17.93;;;14.07;;
15624;SDS011;7912;51.376;6.126;2023-11-21T15:19:17;17.13;;;13.27;;